Time;durP1;ratioP1;P1;durP2;ratioP2;P2;SDS_P1;SDS_P2;PMS_P1;PMS_P2;Temp;Humidity;BMP_temperature;BMP_pressure;BME280_temperature;BME280_humidity;BME280_pressure;Samples;Min_cycle;Max_cycle;Signal;HPM_P1;HPM_P2
2022/01/31 00:00:18;;;;;;;5.45;1.77;;;;;;;-145.06;0.00;60892.56;4859710;28;20065;-89
2022/01/31 00:02:58;;;;;;;5.43;1.42;;;;;;;-145.06;0.00;60892.56;4860475;28;20064;-89
2022/01/31 00:05:36;;;;;;;4.03;1.70;;;;;;;-145.06;0.00;60892.56;4877588;28;20041;-89
2022/01/31 00:08:21;;;;;;;9.73;2.50;;;;;;;-145.06;0.00;60892.56;4871069;28;20456;-89
2022/01/31 00:11:00;;;;;;;5.80;2.00;;;;;;;-145.06;0.00;60892.56;4855279;28;20124;-89
2022/01/31 00:13:44;;;;;;;7.40;2.00;;;;;;;-145.06;0.00;60892.56;4859264;28;20112;-88
2022/01/31 00:16:30;;;;;;;4.57;1.40;;;;;;;-145.06;0.00;60892.56;4860371;28;20359;-88
2022/01/31 00:19:09;;;;;;;5.05;1.70;;;;;;;-145.06;0.00;60892.56;4856269;28;20037;-89
2022/01/31 00:21:48;;;;;;;6.65;1.73;;;;;;;-145.06;0.00;60892.56;4858457;28;20041;-89
2022/01/31 00:24:27;;;;;;;8.40;1.92;;;;;;;-145.06;0.00;60892.56;4884963;28;20369;-89
2022/01/31 00:27:08;;;;;;;5.93;2.00;;;;;;;-145.06;0.00;60892.56;4840592;28;20049;-89
2022/01/31 00:29:47;;;;;;;6.18;1.67;;;;;;;-145.06;0.00;60892.56;4857786;28;20034;-89
2022/01/31 00:32:29;;;;;;;5.73;1.80;;;;;;;-145.06;0.00;60892.56;4853109;28;20037;-88
2022/01/31 00:35:10;;;;;;;4.07;1.40;;;;;;;-145.06;0.00;60892.56;4855925;28;20037;-89
2022/01/31 00:37:49;;;;;;;9.05;2.25;;;;;;;-145.06;0.00;60892.56;4853490;28;20025;-90
2022/01/31 00:40:29;;;;;;;7.47;2.10;;;;;;;-145.06;0.00;60892.56;4852273;28;20810;-89
2022/01/31 00:43:13;;;;;;;6.72;2.28;;;;;;;-145.06;0.00;60892.56;4857131;28;20289;-90
2022/01/31 00:46:00;;;;;;;7.18;1.98;;;;;;;-145.06;0.00;60892.56;4862256;28;20639;-89
2022/01/31 00:48:45;;;;;;;7.18;1.70;;;;;;;-145.06;0.00;60892.56;4848725;28;20029;-89
2022/01/31 00:51:24;;;;;;;6.43;1.70;;;;;;;-145.06;0.00;60892.56;4856829;28;20494;-90
2022/01/31 00:54:03;;;;;;;4.78;1.88;;;;;;;-145.06;0.00;60892.56;4882416;28;20041;-89
2022/01/31 00:56:42;;;;;;;5.00;1.80;;;;;;;-145.06;0.00;60892.56;4855515;28;20041;-88
2022/01/31 00:59:21;;;;;;;10.10;2.10;;;;;;;-145.06;0.00;60892.56;4855732;28;20038;-89
2022/01/31 01:02:01;;;;;;;5.47;1.67;;;;;;;-145.06;0.00;60892.56;4877043;28;20029;-89
2022/01/31 01:04:40;;;;;;;5.47;1.50;;;;;;;-145.06;0.00;60892.56;4854123;28;20260;-89
2022/01/31 01:07:22;;;;;;;2.97;1.27;;;;;;;-145.06;0.00;60892.56;4884948;28;20037;-90
2022/01/31 01:10:01;;;;;;;4.00;1.45;;;;;;;-145.06;0.00;60892.56;4849594;28;20038;-89
2022/01/31 01:12:40;;;;;;;2.58;1.27;;;;;;;-145.06;0.00;60892.56;4856567;28;20037;-89
2022/01/31 01:15:19;;;;;;;3.63;1.43;;;;;;;-145.06;0.00;60892.56;4861296;28;20037;-89
2022/01/31 01:17:58;;;;;;;4.90;1.70;;;;;;;-145.06;0.00;60892.56;4856490;28;20272;-89
2022/01/31 01:20:37;;;;;;;5.63;1.73;;;;;;;-145.06;0.00;60892.56;4855894;28;20272;-90
2022/01/31 01:23:16;;;;;;;4.22;1.73;;;;;;;-145.06;0.00;60892.56;4860843;28;20037;-89
2022/01/31 01:25:55;;;;;;;6.20;1.70;;;;;;;-145.06;0.00;60892.56;4856259;28;20037;-88
2022/01/31 01:28:34;;;;;;;3.25;1.40;;;;;;;-145.06;0.00;60892.56;4855752;28;20030;-89
2022/01/31 01:31:14;;;;;;;5.90;1.93;;;;;;;-145.06;0.00;60892.56;4837480;28;20049;-89
2022/01/31 01:33:54;;;;;;;4.85;1.63;;;;;;;-145.06;0.00;60892.56;4847200;28;21022;-89
2022/01/31 01:36:34;;;;;;;5.40;1.63;;;;;;;-145.06;0.00;60892.56;4857363;28;20037;-89
2022/01/31 01:39:14;;;;;;;4.10;1.25;;;;;;;-145.06;0.00;60892.56;4855343;28;20026;-89
2022/01/31 01:41:53;;;;;;;5.53;1.50;;;;;;;-145.06;0.00;60892.56;4856206;28;20467;-88
2022/01/31 01:44:58;;;;;;;3.57;1.47;;;;;;;-145.06;0.00;60892.56;4858413;28;20033;-90
2022/01/31 01:47:37;;;;;;;8.75;2.10;;;;;;;-145.06;0.00;60892.56;4872182;28;20029;-89
2022/01/31 01:50:16;;;;;;;6.85;2.13;;;;;;;-145.06;0.00;60892.56;4854088;28;20037;-90
2022/01/31 01:52:55;;;;;;;7.00;1.60;;;;;;;-145.06;0.00;60892.56;4856060;28;20041;-91
2022/01/31 01:55:34;;;;;;;5.40;1.70;;;;;;;-145.06;0.00;60892.56;4854719;28;20029;-89
2022/01/31 01:58:16;;;;;;;;;;;;;;;-145.06;0.00;60892.56;4856495;28;20558;-89
2022/01/31 02:01:02;;;;;;;6.47;1.90;;;;;;;-145.06;0.00;60892.56;4862305;28;19917;-90
2022/01/31 02:03:41;;;;;;;9.68;2.28;;;;;;;-145.06;0.00;60892.56;4853947;28;20483;-89
2022/01/31 02:06:20;;;;;;;6.13;1.77;;;;;;;-145.06;0.00;60892.56;4853813;28;20029;-88
2022/01/31 02:09:02;;;;;;;7.10;1.90;;;;;;;-145.06;0.00;60892.56;4854687;28;20033;-88
2022/01/31 02:11:41;;;;;;;6.38;1.65;;;;;;;-145.06;0.00;60892.56;4849648;28;20037;-88
2022/01/31 02:14:21;;;;;;;9.65;2.10;;;;;;;-145.06;0.00;60892.56;4854550;28;20033;-88
2022/01/31 02:17:01;;;;;;;5.03;1.70;;;;;;;21.08;0.00;60892.56;4869973;28;20037;-90
2022/01/31 02:19:40;;;;;;;7.60;2.20;;;;;;;-145.06;0.00;60892.56;4857953;28;20030;-89
2022/01/31 02:22:19;;;;;;;7.50;1.98;;;;;;;-145.06;0.00;60892.56;4854802;28;20113;-89
2022/01/31 02:24:59;;;;;;;7.93;1.93;;;;;;;-145.06;0.00;60892.56;4850716;28;20041;-89
2022/01/31 02:27:38;;;;;;;8.20;2.20;;;;;;;-145.06;0.00;60892.56;4855333;28;20618;-88
2022/01/31 02:30:17;;;;;;;13.27;2.17;;;;;;;-145.06;0.00;60892.56;4853972;28;20601;-88
2022/01/31 02:32:56;;;;;;;7.95;2.15;;;;;;;-145.06;0.00;60892.56;4857060;28;20029;-89
2022/01/31 02:35:35;;;;;;;8.40;2.05;;;;;;;-145.06;0.00;60892.56;4847715;28;20037;-89
2022/01/31 02:38:14;;;;;;;5.73;1.83;;;;;;;-145.06;0.00;60892.56;4851533;28;20025;-88
2022/01/31 02:40:54;;;;;;;8.57;1.90;;;;;;;-145.06;0.00;60892.56;4841066;28;20029;-88
2022/01/31 02:43:35;;;;;;;9.90;2.38;;;;;;;-145.06;0.00;60892.56;4854954;28;20396;-88
2022/01/31 02:46:15;;;;;;;7.28;2.33;;;;;;;-145.06;0.00;60892.56;4852774;28;20112;-88
2022/01/31 02:48:56;;;;;;;8.13;2.05;;;;;;;-145.06;0.00;60892.56;4853556;28;20033;-88
2022/01/31 02:51:35;;;;;;;6.35;2.05;;;;;;;6.79;0.00;60892.56;4852906;28;20037;-88
2022/01/31 02:54:14;;;;;;;5.55;2.28;;;;;;;-145.06;0.00;60892.56;4847314;28;20029;-88
2022/01/31 02:56:53;;;;;;;6.33;2.17;;;;;;;-145.06;0.00;60892.56;4849165;28;20116;-88
2022/01/31 02:59:32;;;;;;;6.13;1.90;;;;;;;-145.06;0.00;60892.56;4854083;28;20037;-88
2022/01/31 03:02:11;;;;;;;7.07;1.88;;;;;;;5.24;0.00;60892.56;4852528;28;20041;-87
2022/01/31 03:04:50;;;;;;;8.55;2.50;;;;;;;-145.06;0.00;60892.56;4851823;28;20033;-86
2022/01/31 03:07:30;;;;;;;6.43;2.03;;;;;;;-145.06;0.00;60892.56;4882610;28;20034;-88
2022/01/31 03:10:09;;;;;;;7.60;1.98;;;;;;;-145.06;0.00;60892.56;4853406;28;20021;-87
2022/01/31 03:12:49;;;;;;;5.13;1.73;;;;;;;-145.06;0.00;60892.56;4841881;28;20029;-88
2022/01/31 03:15:27;;;;;;;4.25;1.85;;;;;;;-145.06;0.00;60892.56;4852513;28;20479;-88
2022/01/31 03:18:07;;;;;;;4.28;1.67;;;;;;;-145.06;0.00;60892.56;4856162;28;20041;-88
2022/01/31 03:20:46;;;;;;;6.43;1.65;;;;;;;-145.06;0.00;60892.56;4854823;28;20022;-88
2022/01/31 03:23:25;;;;;;;2.80;1.40;;;;;;;-145.06;0.00;60892.56;4854873;28;20061;-86
2022/01/31 03:26:04;;;;;;;4.70;1.60;;;;;;;-145.06;0.00;60892.56;4858687;28;20033;-87
2022/01/31 03:28:43;;;;;;;5.22;1.80;;;;;;;-145.06;0.00;60892.56;4856358;28;20530;-88
2022/01/31 03:31:22;;;;;;;2.40;1.02;;;;;;;-145.06;0.00;60892.56;4859026;28;20025;-88
2022/01/31 03:34:02;;;;;;;7.00;1.73;;;;;;;-145.06;0.00;60892.56;4867210;28;20042;-87
2022/01/31 03:36:42;;;;;;;2.42;1.30;;;;;;;-145.06;0.00;60892.56;4854992;28;20590;-88
2022/01/31 03:39:21;;;;;;;3.47;1.10;;;;;;;-145.06;0.00;60892.56;4853619;28;20502;-87
2022/01/31 03:42:00;;;;;;;4.30;1.30;;;;;;;-145.06;0.00;60892.56;4853619;28;20041;-87
2022/01/31 03:44:42;;;;;;;2.80;1.17;;;;;;;-145.06;0.00;60892.56;4854169;28;20034;-88
2022/01/31 03:47:22;;;;;;;2.72;1.10;;;;;;;-145.06;0.00;60892.56;4856567;28;20053;-88
2022/01/31 03:50:01;;;;;;;4.00;1.27;;;;;;;-145.06;0.00;60892.56;4853769;28;20064;-88
2022/01/31 03:52:40;;;;;;;4.57;1.40;;;;;;;-145.06;0.00;60892.56;4841160;28;20046;-87
2022/01/31 03:55:20;;;;;;;4.38;1.63;;;;;;;-145.06;0.00;60892.56;4878560;28;20530;-87
2022/01/31 03:57:58;;;;;;;2.33;1.00;;;;;;;-145.06;0.00;60892.56;4858683;28;20030;-87
2022/01/31 04:00:37;;;;;;;1.77;1.10;;;;;;;-145.06;0.00;60892.56;4853923;28;20396;-88
2022/01/31 04:03:17;;;;;;;3.77;1.03;;;;;;;-145.06;0.00;60892.56;4881446;28;20064;-88
2022/01/31 04:05:56;;;;;;;1.95;1.20;;;;;;;-145.06;0.00;60892.56;4852663;28;20025;-87
2022/01/31 04:08:35;;;;;;;2.07;1.00;;;;;;;-145.06;0.00;60892.56;4853622;28;20042;-88
2022/01/31 04:11:14;;;;;;;2.60;0.90;;;;;;;-145.06;0.00;60892.56;4853785;28;20287;-87
2022/01/31 04:13:53;;;;;;;2.15;0.90;;;;;;;-145.06;0.00;60892.56;4862493;28;20447;-88
2022/01/31 04:16:32;;;;;;;3.03;1.20;;;;;;;-145.06;0.00;60892.56;4857262;28;20041;-88
2022/01/31 04:19:11;;;;;;;2.15;1.17;;;;;;;-145.06;0.00;60892.56;4884771;28;20377;-88
2022/01/31 04:21:50;;;;;;;1.48;1.13;;;;;;;-145.06;0.00;60892.56;4852450;28;20045;-87
2022/01/31 04:24:34;;;;;;;3.88;1.20;;;;;;;-145.06;0.00;60892.56;4848821;28;20483;-88
2022/01/31 04:27:18;;;;;;;3.20;1.27;;;;;;;-145.06;0.00;60892.56;4854165;28;20045;-87
2022/01/31 04:29:57;;;;;;;1.75;1.10;;;;;;;-145.06;0.00;60892.56;4854377;28;20026;-87
2022/01/31 04:32:36;;;;;;;3.10;1.20;;;;;;;-145.06;0.00;60892.56;4855418;28;20041;-87
2022/01/31 04:35:15;;;;;;;4.60;1.27;;;;;;;-145.06;0.00;60892.56;4855380;28;20037;-88
2022/01/31 04:37:54;;;;;;;2.30;1.10;;;;;;;-145.06;0.00;60892.56;4855779;28;20038;-89
2022/01/31 04:40:33;;;;;;;4.05;1.52;;;;;;;5.20;0.00;60892.56;4852620;28;20034;-88
2022/01/31 04:43:12;;;;;;;2.20;1.23;;;;;;;-145.06;0.00;60892.56;4854178;28;20045;-89
2022/01/31 04:45:51;;;;;;;2.83;1.55;;;;;;;-145.06;0.00;60892.56;4860908;28;20385;-88
2022/01/31 04:48:30;;;;;;;1.85;1.10;;;;;;;10.68;0.00;60892.56;4857802;28;20448;-88
2022/01/31 04:51:10;;;;;;;2.17;1.35;;;;;;;5.49;0.00;60892.56;4855694;28;20583;-88
2022/01/31 04:53:49;;;;;;;3.20;1.20;;;;;;;-145.06;0.00;60892.56;4851672;28;20373;-88
2022/01/31 04:56:28;;;;;;;3.17;1.47;;;;;;;6.79;0.00;60892.56;4854416;28;20033;-88
2022/01/31 04:59:08;;;;;;;2.83;1.33;;;;;;;-145.06;0.00;60892.56;4856837;28;20029;-88
2022/01/31 05:01:48;;;;;;;2.60;1.30;;;;;;;-145.06;0.00;60892.56;4855920;28;20037;-88
2022/01/31 05:04:27;;;;;;;5.30;1.88;;;;;;;-145.06;0.00;60892.56;4854576;28;20041;-87
2022/01/31 05:07:06;;;;;;;4.45;1.80;;;;;;;5.81;0.00;60892.56;4856327;28;20033;-88
2022/01/31 05:09:45;;;;;;;3.90;1.50;;;;;;;-145.06;0.00;60892.56;4883329;28;20022;-88
2022/01/31 05:12:26;;;;;;;6.40;1.65;;;;;;;-145.06;0.00;60892.56;4854875;28;20041;-87
2022/01/31 05:15:05;;;;;;;4.30;1.50;;;;;;;-145.06;0.00;60892.56;4851448;28;20068;-87
2022/01/31 05:17:44;;;;;;;2.75;1.33;;;;;;;-145.06;0.00;60892.56;4855455;28;20303;-89
2022/01/31 05:20:23;;;;;;;5.82;2.00;;;;;;;-145.06;0.00;60892.56;4855287;28;20525;-88
2022/01/31 05:23:04;;;;;;;3.57;1.80;;;;;;;187.52;0.00;60892.56;4883000;28;20372;-88
2022/01/31 05:25:44;;;;;;;5.45;1.73;;;;;;;-145.06;0.00;60892.56;4875741;28;20631;-88
2022/01/31 05:28:23;;;;;;;2.20;1.33;;;;;;;-145.06;0.00;60892.56;4844786;28;20033;-88
2022/01/31 05:31:02;;;;;;;4.88;1.38;;;;;;;-145.06;0.00;60892.56;4852226;28;20037;-88
2022/01/31 05:33:41;;;;;;;6.00;1.77;;;;;;;-145.06;0.00;60892.56;4836454;28;20042;-88
2022/01/31 05:36:21;;;;;;;4.30;1.55;;;;;;;-145.06;0.00;60892.56;4844651;28;20026;-88
2022/01/31 05:39:00;;;;;;;4.35;1.70;;;;;;;-145.06;0.00;60892.56;4838058;28;20057;-88
2022/01/31 05:41:40;;;;;;;5.35;1.50;;;;;;;-145.06;0.00;60892.56;4851943;28;20033;-88
2022/01/31 05:44:20;;;;;;;3.65;1.30;;;;;;;-145.06;0.00;60892.56;4856996;28;20040;-88
2022/01/31 05:47:00;;;;;;;7.13;1.45;;;;;;;-145.06;0.00;60892.56;4852162;28;20038;-88
2022/01/31 05:49:39;;;;;;;;;;;;;;;-145.06;0.00;60892.56;4851006;28;20025;-86
2022/01/31 05:52:18;;;;;;;4.93;1.90;;;;;;;-145.06;0.00;60892.56;4879113;28;19917;-88
2022/01/31 05:54:57;;;;;;;5.10;1.83;;;;;;;-145.06;0.00;60892.56;4852384;28;20037;-88
2022/01/31 05:57:36;;;;;;;5.13;1.63;;;;;;;-145.06;0.00;60892.56;4852228;28;20033;-87
2022/01/31 06:00:16;;;;;;;2.88;1.20;;;;;;;-145.06;0.00;60892.56;4854098;28;20284;-88
2022/01/31 06:02:59;;;;;;;3.35;1.25;;;;;;;-145.06;0.00;60892.56;4852040;28;20077;-86
2022/01/31 06:05:38;;;;;;;5.30;1.10;;;;;;;6.46;0.00;60892.56;4862605;28;20029;-88
2022/01/31 06:08:17;;;;;;;5.22;1.52;;;;;;;-145.06;0.00;60892.56;4848508;28;20061;-88
2022/01/31 06:10:57;;;;;;;7.13;1.70;;;;;;;-145.06;0.00;60892.56;4849590;28;20069;-87
2022/01/31 06:13:36;;;;;;;4.75;1.65;;;;;;;-145.06;0.00;60892.56;4852689;28;20032;-86
2022/01/31 06:16:15;;;;;;;5.38;1.48;;;;;;;-145.06;0.00;60892.56;4850756;28;20040;-88
2022/01/31 06:18:54;;;;;;;6.10;1.60;;;;;;;-145.06;0.00;60892.56;4853125;28;20038;-87
2022/01/31 06:21:33;;;;;;;3.13;1.43;;;;;;;-145.06;0.00;60892.56;4853872;28;20116;-87
2022/01/31 06:24:14;;;;;;;4.00;1.30;;;;;;;-145.06;0.00;60892.56;4853565;28;20259;-88
2022/01/31 06:26:54;;;;;;;5.57;1.65;;;;;;;-145.06;0.00;60892.56;4849508;28;20617;-88
2022/01/31 06:29:33;;;;;;;3.20;1.23;;;;;;;-145.06;0.00;60892.56;4854334;28;20033;-88
2022/01/31 06:32:12;;;;;;;3.57;1.60;;;;;;;-145.06;0.00;60892.56;4853111;28;20383;-87
2022/01/31 06:34:53;;;;;;;9.13;2.30;;;;;;;187.52;0.00;60892.56;4850662;28;20070;-89
2022/01/31 06:37:33;;;;;;;3.17;1.20;;;;;;;-145.06;0.00;60892.56;4851997;28;20516;-88
2022/01/31 06:40:12;;;;;;;4.75;1.58;;;;;;;-145.06;0.00;60892.56;4849139;28;20029;-87
2022/01/31 06:42:52;;;;;;;4.72;1.77;;;;;;;-145.06;0.00;60892.56;4849184;28;20030;-88
2022/01/31 06:45:31;;;;;;;3.40;1.33;;;;;;;-145.06;0.00;60892.56;4858271;28;20041;-88
2022/01/31 06:48:10;;;;;;;3.90;1.27;;;;;;;-145.06;0.00;60892.56;4881308;28;20037;-90
2022/01/31 06:50:49;;;;;;;5.70;1.70;;;;;;;-145.06;0.00;60892.56;4850743;28;20472;-88
2022/01/31 06:53:29;;;;;;;4.63;1.52;;;;;;;-145.06;0.00;60892.56;4842922;28;20041;-87
2022/01/31 06:56:08;;;;;;;;;;;;;;;-145.06;0.00;60892.56;4852887;28;20571;-90
2022/01/31 06:58:47;;;;;;;5.05;1.52;;;;;;;-145.06;0.00;60892.56;4869078;28;19977;-88
2022/01/31 07:01:26;;;;;;;7.88;1.77;;;;;;;-145.06;0.00;60892.56;4866531;28;20033;-88
2022/01/31 07:04:06;;;;;;;5.85;1.40;;;;;;;-145.06;0.00;60892.56;4864678;28;20068;-88
2022/01/31 07:06:44;;;;;;;5.93;1.57;;;;;;;-145.06;0.00;60892.56;4858158;28;20504;-87
2022/01/31 07:09:24;;;;;;;6.85;1.75;;;;;;;-145.06;0.00;60892.56;4856941;28;20108;-87
2022/01/31 07:12:05;;;;;;;5.10;1.77;;;;;;;-145.06;0.00;60892.56;4885431;28;20666;-87
2022/01/31 07:14:45;;;;;;;8.35;2.20;;;;;;;-145.06;0.00;60892.56;4858900;28;20033;-87
2022/01/31 07:17:24;;;;;;;6.17;1.70;;;;;;;-145.06;0.00;60892.56;4863608;28;20112;-88
2022/01/31 07:20:05;;;;;;;13.10;2.15;;;;;;;-145.06;0.00;60892.56;4860588;28;20030;-89
2022/01/31 07:22:50;;;;;;;4.47;1.50;;;;;;;-145.06;0.00;60892.56;4860894;28;20029;-88
2022/01/31 07:25:35;;;;;;;5.68;1.42;;;;;;;-145.06;0.00;60892.56;4854340;28;20029;-89
2022/01/31 07:28:19;;;;;;;7.45;2.17;;;;;;;-145.06;0.00;60892.56;4858268;28;20061;-88
2022/01/31 07:30:58;;;;;;;9.40;2.13;;;;;;;5.73;0.00;60892.56;4853729;28;20356;-88
2022/01/31 07:33:41;;;;;;;10.77;2.53;;;;;;;-145.06;0.00;60892.56;4859332;28;20033;-88
2022/01/31 07:36:22;;;;;;;5.57;1.92;;;;;;;-145.06;0.00;60892.56;4852887;28;20116;-86
2022/01/31 07:39:02;;;;;;;7.35;2.38;;;;;;;6.14;0.00;60892.56;4860069;28;20108;-87
2022/01/31 07:41:41;;;;;;;8.98;2.28;;;;;;;-145.06;0.00;60892.56;4857736;28;20471;-87
2022/01/31 07:44:21;;;;;;;9.77;2.35;;;;;;;-145.06;0.00;60892.56;4886077;28;20037;-88
2022/01/31 07:47:00;;;;;;;4.68;1.75;;;;;;;-145.06;0.00;60892.56;4862378;28;20037;-87
2022/01/31 07:49:39;;;;;;;7.90;1.73;;;;;;;-145.06;0.00;60892.56;4862395;28;20057;-88
2022/01/31 07:52:18;;;;;;;7.07;2.10;;;;;;;-145.06;0.00;60892.56;4863024;28;20056;-88
2022/01/31 07:54:57;;;;;;;7.10;1.93;;;;;;;6.79;0.00;60892.56;4863151;28;20048;-89
2022/01/31 07:57:37;;;;;;;6.68;1.75;;;;;;;10.68;0.00;60892.56;4855233;28;20030;-89
2022/01/31 08:00:17;;;;;;;7.60;1.65;;;;;;;-145.06;0.00;60892.56;4860039;28;20120;-87
2022/01/31 08:02:56;;;;;;;4.32;1.55;;;;;;;6.79;0.00;60892.56;4863686;28;20033;-88
2022/01/31 08:05:35;;;;;;;6.68;1.65;;;;;;;-145.06;0.00;60892.56;4860741;28;20073;-89
2022/01/31 08:08:14;;;;;;;9.57;2.03;;;;;;;187.52;0.00;60892.56;4858386;28;20066;-89
2022/01/31 08:10:53;;;;;;;9.48;2.00;;;;;;;5.49;0.00;60892.56;4863389;28;20296;-88
2022/01/31 08:13:33;;;;;;;8.50;2.03;;;;;;;5.48;0.00;60892.56;4858303;28;20037;-88
2022/01/31 08:16:13;;;;;;;5.75;2.00;;;;;;;5.46;0.00;60892.56;4865320;28;20025;-88
2022/01/31 08:18:52;;;;;;;6.55;1.88;;;;;;;5.49;0.00;60892.56;4860917;28;20029;-88
2022/01/31 08:21:32;;;;;;;6.53;1.60;;;;;;;5.45;0.00;60892.56;4853125;28;20029;-89
2022/01/31 08:24:11;;;;;;;9.07;1.73;;;;;;;-145.06;0.00;60892.56;4860863;28;20021;-88
2022/01/31 08:26:51;;;;;;;5.07;1.88;;;;;;;-145.06;0.00;60892.56;4860936;28;20496;-89
2022/01/31 08:29:34;;;;;;;7.00;1.75;;;;;;;5.40;0.00;60892.56;4851279;28;20034;-88
2022/01/31 08:32:32;;;;;;;4.55;1.33;;;;;;;-145.06;0.00;60892.56;4862023;28;20045;-88
2022/01/31 08:38:10;;;;;;;5.72;1.70;;;;;;;-145.06;0.00;60892.56;4861712;28;20041;-88
2022/01/31 08:40:49;;;;;;;5.50;1.87;;;;;;;-145.06;0.00;60892.56;4854640;28;20088;-88
2022/01/31 08:43:28;;;;;;;4.97;1.75;;;;;;;5.43;0.00;60892.56;4884830;28;20476;-89
2022/01/31 08:46:09;;;;;;;6.10;1.55;;;;;;;5.49;0.00;60892.56;4857398;28;20593;-88
2022/01/31 08:48:48;;;;;;;7.63;1.90;;;;;;;-145.06;0.00;60892.56;4856843;28;20021;-88
2022/01/31 08:51:27;;;;;;;4.63;1.33;;;;;;;-145.06;0.00;60892.56;4857245;28;20037;-89
2022/01/31 08:54:07;;;;;;;5.03;1.85;;;;;;;-145.06;0.00;60892.56;4856653;28;20420;-89
2022/01/31 08:56:48;;;;;;;5.25;1.63;;;;;;;-145.06;0.00;60892.56;4857153;28;20065;-88
2022/01/31 08:59:28;;;;;;;5.78;1.63;;;;;;;-145.06;0.00;60892.56;4851653;28;20033;-89
2022/01/31 09:02:13;;;;;;;;;;;;;;;5.36;0.00;60892.56;4857565;28;20506;-88
2022/01/31 09:04:52;;;;;;;5.88;1.55;;;;;;;-145.06;0.00;60892.56;4856009;28;19917;-90
2022/01/31 09:07:31;;;;;;;4.70;1.30;;;;;;;-145.06;0.00;60892.56;4856453;28;20033;-89
2022/01/31 09:10:11;;;;;;;6.97;1.98;;;;;;;5.34;0.00;60892.56;4857597;28;20514;-87
2022/01/31 09:12:50;;;;;;;6.65;1.88;;;;;;;5.30;0.00;60892.56;4862358;28;20053;-88
2022/01/31 09:15:29;;;;;;;6.90;1.70;;;;;;;10.68;0.00;60892.56;4861767;28;20041;-88
2022/01/31 09:18:08;;;;;;;7.22;2.35;;;;;;;-145.06;0.00;60892.56;4857492;28;20060;-88
2022/01/31 09:20:47;;;;;;;6.13;1.87;;;;;;;5.32;0.00;60892.56;4857763;28;20045;-88
2022/01/31 09:23:27;;;;;;;5.38;1.63;;;;;;;5.24;0.00;60892.56;4884578;28;20268;-88
2022/01/31 09:26:06;;;;;;;7.38;1.60;;;;;;;21.08;0.00;60892.56;4857570;28;20522;-88
2022/01/31 09:28:46;;;;;;;8.77;2.00;;;;;;;5.24;0.00;60892.56;4845776;28;20029;-88
2022/01/31 09:31:24;;;;;;;9.40;1.92;;;;;;;5.16;0.00;60892.56;4848329;28;20041;-88
2022/01/31 09:34:06;;;;;;;8.23;1.60;;;;;;;5.49;0.00;60892.56;4857030;28;20041;-88
2022/01/31 09:36:45;;;;;;;19.27;2.35;;;;;;;5.16;0.00;60892.56;4857844;28;20062;-87
2022/01/31 09:39:24;;;;;;;8.70;2.03;;;;;;;-145.06;0.00;60892.56;4855353;28;20069;-89
2022/01/31 09:42:07;;;;;;;10.90;2.20;;;;;;;-145.06;0.00;60892.56;4845035;28;20057;-89
2022/01/31 09:45:02;;;;;;;7.32;1.90;;;;;;;5.49;0.00;60892.56;4862027;28;20395;-90
2022/01/31 09:50:36;;;;;;;7.93;1.83;;;;;;;-145.06;0.00;60892.56;4848354;28;20112;-87
2022/01/31 09:53:15;;;;;;;6.13;1.77;;;;;;;-145.06;0.00;60892.56;4856648;28;20132;-89
2022/01/31 09:55:54;;;;;;;6.80;1.63;;;;;;;-145.06;0.00;60892.56;4848683;28;20041;-89
2022/01/31 09:58:34;;;;;;;;;;;;;;;-145.06;0.00;60892.56;4855842;28;20033;-89
2022/01/31 10:01:13;;;;;;;6.22;1.73;;;;;;;-145.06;0.00;60892.56;4868928;28;19909;-89
2022/01/31 10:04:00;;;;;;;8.80;1.55;;;;;;;-145.06;0.00;60892.56;4850437;28;20045;-88
2022/01/31 10:06:41;;;;;;;8.00;1.90;;;;;;;10.68;0.00;60892.56;4874571;28;20041;-89
2022/01/31 10:09:27;;;;;;;11.10;2.05;;;;;;;-145.06;0.00;60892.56;4856153;28;20029;-88
2022/01/31 10:18:02;;;;;;;;;;;;;;;-145.06;0.00;60892.56;4855725;28;20037;-88
2022/01/31 10:20:42;;;;;;;11.75;2.58;;;;;;;-145.06;0.00;60892.56;4853305;28;19982;-88
2022/01/31 10:23:20;;;;;;;12.40;2.63;;;;;;;-145.06;0.00;60892.56;4850741;28;20030;-89
2022/01/31 10:25:59;;;;;;;10.20;2.40;;;;;;;-145.06;0.00;60892.56;4854314;28;20487;-88
2022/01/31 10:28:39;;;;;;;7.82;2.13;;;;;;;-145.06;0.00;60892.56;4848606;28;20029;-88
2022/01/31 10:31:18;;;;;;;9.68;2.40;;;;;;;5.16;0.00;60892.56;4860179;28;20041;-88
2022/01/31 10:34:21;;;;;;;10.97;2.30;;;;;;;-145.06;0.00;60892.56;4874263;28;20037;-88
2022/01/31 10:37:03;;;;;;;7.10;1.92;;;;;;;-145.06;0.00;60892.56;4862472;28;20061;-88
2022/01/31 10:52:04;;;;;;;8.38;2.53;;;;;;;-145.06;0.00;60892.56;4850410;28;20474;-88
2022/01/31 10:54:43;;;;;;;10.93;2.35;;;;;;;-145.06;0.00;60892.56;4854619;28;20037;-89
2022/01/31 10:57:23;;;;;;;9.73;2.40;;;;;;;-145.06;0.00;60892.56;4855744;28;20033;-89
2022/01/31 11:00:03;;;;;;;;;;;;;;;-145.06;0.00;60892.56;4855259;28;20029;-89
2022/01/31 11:02:42;;;;;;;14.82;2.75;;;;;;;-145.06;0.00;60892.56;4854829;28;20616;-87
2022/01/31 11:05:23;;;;;;;8.00;2.45;;;;;;;-145.06;0.00;60892.56;4854129;28;20041;-89
2022/01/31 11:08:15;;;;;;;8.40;2.33;;;;;;;-145.06;0.00;60892.56;4850970;28;20037;-88
2022/01/31 11:10:59;;;;;;;14.60;3.25;;;;;;;5.10;0.00;60892.56;4853629;28;20100;-88
2022/01/31 11:13:38;;;;;;;10.00;2.03;;;;;;;-145.06;0.00;60892.56;4858619;28;20482;-88
2022/01/31 11:16:17;;;;;;;17.10;3.15;;;;;;;-145.06;0.00;60892.56;4857099;28;20548;-88
2022/01/31 11:19:01;;;;;;;8.93;2.58;;;;;;;-145.06;0.00;60892.56;4855468;28;20038;-88
2022/01/31 11:21:44;;;;;;;14.70;2.45;;;;;;;-145.06;0.00;60892.56;4846423;28;20025;-88
2022/01/31 11:24:27;;;;;;;8.45;2.40;;;;;;;-145.06;0.00;60892.56;4856345;28;20104;-88
2022/01/31 11:27:12;;;;;;;10.25;2.53;;;;;;;-145.06;0.00;60892.56;4855321;28;20037;-89
2022/01/31 11:29:55;;;;;;;14.30;2.67;;;;;;;-145.06;0.00;60892.56;4842503;28;20108;-89
2022/01/31 11:32:34;;;;;;;9.70;2.05;;;;;;;-145.06;0.00;60892.56;4857866;28;20037;-88
2022/01/31 11:35:13;;;;;;;11.15;2.60;;;;;;;-145.06;0.00;60892.56;4858994;28;20120;-89
2022/01/31 11:37:53;;;;;;;11.13;3.28;;;;;;;-145.06;0.00;60892.56;4858800;28;20029;-89
2022/01/31 11:40:32;;;;;;;15.38;2.72;;;;;;;-145.06;0.00;60892.56;4857521;28;20108;-88
2022/01/31 11:43:14;;;;;;;11.32;2.60;;;;;;;-145.06;0.00;60892.56;4859799;28;20033;-88
2022/01/31 11:45:54;;;;;;;18.90;3.05;;;;;;;-145.06;0.00;60892.56;4854283;28;20029;-89
2022/01/31 11:48:33;;;;;;;15.23;2.72;;;;;;;-145.06;0.00;60892.56;4872406;28;20116;-88
2022/01/31 11:51:12;;;;;;;12.77;2.72;;;;;;;-145.06;0.00;60892.56;4858042;28;20041;-88
2022/01/31 11:54:06;;;;;;;10.93;2.60;;;;;;;-145.06;0.00;60892.56;4851915;28;20081;-88
2022/01/31 11:56:45;;;;;;;13.15;3.28;;;;;;;-145.06;0.00;60892.56;4885659;28;20112;-88
2022/01/31 11:59:24;;;;;;;10.63;2.40;;;;;;;5.49;0.00;60892.56;4859421;28;20116;-88
2022/01/31 12:02:03;;;;;;;10.45;2.28;;;;;;;5.21;0.00;60892.56;4854086;28;20029;-89
2022/01/31 12:04:44;;;;;;;14.18;2.60;;;;;;;5.20;0.00;60892.56;4839712;28;20629;-88
2022/01/31 12:07:40;;;;;;;13.80;2.70;;;;;;;187.52;0.00;60892.56;4849906;28;20041;-89
2022/01/31 12:10:34;;;;;;;10.68;3.03;;;;;;;5.19;0.00;60892.56;4859733;28;20061;-88
2022/01/31 12:13:49;;;;;;;10.98;2.58;;;;;;;-145.06;0.00;60892.56;4856335;28;20033;-88
2022/01/31 12:19:47;;;;;;;14.85;2.83;;;;;;;-145.06;0.00;60892.56;4858820;28;20033;-88
2022/01/31 12:22:44;;;;;;;11.90;3.00;;;;;;;-145.06;0.00;60892.56;4856833;28;20065;-88
2022/01/31 12:25:28;;;;;;;12.02;2.95;;;;;;;-145.06;0.00;60892.56;4856496;28;20057;-88
2022/01/31 12:28:34;;;;;;;9.98;2.50;;;;;;;-145.06;0.00;60892.56;4877472;28;20112;-88
2022/01/31 12:31:36;;;;;;;9.60;2.30;;;;;;;5.16;0.00;60892.56;4868048;28;20428;-88
2022/01/31 12:34:20;;;;;;;8.50;2.17;;;;;;;-145.06;0.00;60892.56;4858181;28;20037;-87
2022/01/31 12:37:03;;;;;;;9.80;2.28;;;;;;;21.08;0.00;60892.56;4852354;28;20492;-88
2022/01/31 12:39:50;;;;;;;10.65;3.13;;;;;;;-145.06;0.00;60892.56;4849590;28;20396;-89
2022/01/31 12:43:25;;;;;;;10.10;2.05;;;;;;;-145.06;0.00;60892.56;4856581;28;20571;-88
2022/01/31 12:45:54;;;;;;;10.35;2.25;;;;;;;-145.06;0.00;60892.56;4855572;28;20029;-89
2022/01/31 12:48:34;;;;;;;10.27;3.05;;;;;;;-145.06;0.00;60892.56;4884561;28;20065;-88
2022/01/31 12:51:15;;;;;;;;;;;;;;;-145.06;0.00;60892.56;4856229;28;20033;-89
2022/01/31 12:53:54;;;;;;;17.75;4.30;;;;;;;187.52;0.00;60892.56;4855068;28;19948;-88
2022/01/31 12:56:33;;;;;;;13.20;3.40;;;;;;;-145.06;0.00;60892.56;4849103;28;20033;-88
2022/01/31 12:59:14;;;;;;;9.85;2.83;;;;;;;-145.06;0.00;60892.56;4856416;28;20037;-88